Nyssa, OR

9:57 PM MDT on July 24, 2016 (GMT -0600)
Boise Valley Feeders | | Change Station

Elev 2572 ft 43.85 °N, 116.89 °W | Updated 7 minutes ago

Clear
Clear
78.9 °F
Feels Like 79 °F
N
2.0
Wind Variable Wind from West
Gusts 4.0 mph

Today
High -- | Low -- °F
--% Chance of Precip.
Yesterday
High -- | Low -- °F
Precip. -- in
Pressure 29.89 in
Visibility 10.0 miles
Clouds Clear
Heat Index 79 °F
Dew Point 48 °F
Humidity 34%
Rainfall 0.00 in
Snow Depth Not available.
6:29 AM 9:19 PM
Waning Gibbous, 70% visible
METAR KONO 250353Z AUTO 28003KT 10SM CLR 26/11 A2993 RMK AO2 SLP120 T02560106
Pressure 29.89 in
Visibility 10.0 miles
Clouds Clear
Heat Index 79 °F
Dew Point 48 °F
Humidity 34%
Rainfall 0.00 in
Snow Depth Not available.
6:29 AM 9:19 PM
Waning Gibbous, 70% visible
METAR KONO 250353Z AUTO 28003KT 10SM CLR 26/11 A2993 RMK AO2 SLP120 T02560106

10-Day Weather Forecast

Almanac

Astronomy

Jul. 24, 2016 Rise Set
Actual Time
Civil Twilight
Nautical Twilight
Astronomical Twilight
Moon
Length of Visible Light
Length of Day
Tomorrow will be .
, % of the Moon is Illuminated

Today's Extremes

State Highs State Lows

Community

WunderPhotos

Upload Photos

1,927,256 photos uploaded!

WunderBlog® & News

Nearby

Air Quality

  Air Quality AQ Index Pollutant
Not available.

Snow Depth

Station Depth Elevation

Earthquake Activity

City Distance Mag. Time & Date
Minimum magnitude displayed is 2.5.

Coastal Water Temperatures

Place Temperature

Stations

Nearby Weather Stations

Station Location Temp. Windchill Dew Point Humidity Wind Precip. Elev Updated Type
                   

Watches & Warnings

There are currently no watches in effect.